createdAt,value
2022-12-18T00:01:26.022Z,102455.16
2022-12-18T00:03:54.690Z,102462.28
2022-12-18T00:06:23.186Z,102458.88
2022-12-18T00:08:51.913Z,102463.44
2022-12-18T00:11:21.419Z,102461.84
2022-12-18T00:13:49.349Z,102468.16
2022-12-18T00:16:21.773Z,102469.91
2022-12-18T00:18:50.720Z,102473.44
2022-12-18T00:21:18.907Z,102477.00
2022-12-18T00:23:47.259Z,102494.63
2022-12-18T00:26:23.129Z,102502.50
2022-12-18T00:28:53.890Z,102499.00
2022-12-18T00:31:24.785Z,102497.28
2022-12-18T00:33:57.137Z,102504.41
2022-12-18T00:36:26.667Z,102511.50
2022-12-18T00:38:58.902Z,102504.47
2022-12-18T00:41:45.821Z,102502.75
2022-12-18T00:44:15.196Z,102501.19
2022-12-18T00:46:43.634Z,102500.38
2022-12-18T00:49:14.205Z,102509.31
2022-12-18T00:51:41.667Z,102508.66
2022-12-18T00:54:08.882Z,102519.19
2022-12-18T00:56:48.074Z,102509.63
2022-12-18T00:59:19.074Z,102512.47
2022-12-18T01:01:47.621Z,102516.91
2022-12-18T01:04:15.457Z,102520.41
2022-12-18T01:06:46.002Z,102520.53
2022-12-18T01:09:13.292Z,102521.44
2022-12-18T01:11:40.497Z,102531.09
2022-12-18T01:14:07.757Z,102527.59
2022-12-18T01:16:34.912Z,102524.16
2022-12-18T01:19:02.058Z,102515.44
2022-12-18T01:21:29.197Z,102533.81
2022-12-18T01:23:57.655Z,102536.44
2022-12-18T01:26:26.167Z,102539.97
2022-12-18T01:28:55.478Z,102540.88
2022-12-18T01:31:30.457Z,102533.97
2022-12-18T01:33:58.460Z,102547.09
2022-12-18T01:36:29.517Z,102549.75
2022-12-18T01:38:57.904Z,102539.28
2022-12-18T01:41:27.541Z,102546.28
2022-12-18T01:43:58.191Z,102538.41
2022-12-18T01:46:27.103Z,102547.16
2022-12-18T01:49:00.576Z,102548.06
2022-12-18T01:51:31.450Z,102552.47
2022-12-18T01:53:59.995Z,102549.03
2022-12-18T01:56:27.701Z,102554.28
2022-12-18T01:59:04.172Z,102560.41
2022-12-18T02:01:33.343Z,102568.25
2022-12-18T02:04:26.262Z,102570.88
2022-12-18T02:07:30.820Z,102583.06
2022-12-18T02:10:11.777Z,102577.00
2022-12-18T02:13:05.844Z,102581.34
2022-12-18T02:15:40.269Z,102586.56
2022-12-18T02:18:15.028Z,102590.06
2022-12-18T02:20:48.869Z,102590.94
2022-12-18T02:23:33.429Z,102585.72
2022-12-18T02:26:07.483Z,102599.66
2022-12-18T02:28:41.055Z,102593.56
2022-12-18T02:31:14.388Z,102604.88
2022-12-18T02:33:44.177Z,102600.50
2022-12-18T02:36:13.873Z,102600.50
2022-12-18T02:38:44.957Z,102615.34
2022-12-18T02:41:16.822Z,102612.69
2022-12-18T02:43:56.382Z,102618.78
2022-12-18T02:46:33.335Z,102614.41
2022-12-18T02:49:24.343Z,102630.97
2022-12-18T02:51:56.367Z,102626.59
2022-12-18T02:54:23.828Z,102633.53
2022-12-18T02:56:57.056Z,102629.19
2022-12-18T02:59:59.341Z,102634.41
2022-12-18T03:02:47.566Z,102633.50
2022-12-18T03:05:25.862Z,102644.84
2022-12-18T03:07:59.464Z,102636.94
2022-12-18T03:10:33.162Z,102637.78
2022-12-18T03:13:22.951Z,102642.13
2022-12-18T03:15:56.848Z,102646.47
2022-12-18T03:18:33.807Z,102638.66
2022-12-18T03:21:06.405Z,102646.50
2022-12-18T03:23:42.086Z,102642.94
2022-12-18T03:26:15.669Z,102642.09
2022-12-18T03:29:00.782Z,102648.13
2022-12-18T03:31:31.703Z,102649.84
2022-12-18T03:34:02.174Z,102644.50
2022-12-18T03:36:38.821Z,102652.41
2022-12-18T03:39:06.649Z,102654.16
2022-12-18T03:41:46.156Z,102647.97
2022-12-18T03:44:35.762Z,102651.47
2022-12-18T03:47:34.575Z,102655.00
2022-12-18T03:50:16.064Z,102661.16
2022-12-18T03:53:14.394Z,102668.19
2022-12-18T03:55:43.566Z,102668.16
2022-12-18T03:58:18.479Z,102662.94
2022-12-18T04:01:10.871Z,102661.19
2022-12-18T04:03:39.177Z,102665.53
2022-12-18T04:06:08.817Z,102668.16
2022-12-18T04:08:40.940Z,102669.06
2022-12-18T04:11:10.746Z,102669.06
2022-12-18T04:13:40.267Z,102667.31
2022-12-18T04:16:13.560Z,102676.03
2022-12-18T04:18:43.842Z,102683.03
2022-12-18T04:21:11.276Z,102690.88
2022-12-18T04:23:39.128Z,102698.72
2022-12-18T04:26:07.482Z,102703.91
2022-12-18T04:28:52.518Z,102703.97
2022-12-18T04:31:19.692Z,102713.59
2022-12-18T04:33:47.983Z,102719.72
2022-12-18T04:36:15.870Z,102712.69
2022-12-18T04:38:45.121Z,102721.41
2022-12-18T04:41:15.841Z,102729.31
2022-12-18T04:43:46.516Z,102735.47
2022-12-18T04:46:13.848Z,102734.56
2022-12-18T04:48:41.813Z,102743.31
2022-12-18T04:51:08.919Z,102745.91
2022-12-18T04:53:36.209Z,102743.31
2022-12-18T04:56:04.588Z,102752.03
2022-12-18T04:58:31.809Z,102745.91
2022-12-18T05:00:59.120Z,102752.03
2022-12-18T05:03:26.349Z,102752.91
2022-12-18T05:05:53.976Z,102750.25
2022-12-18T05:08:21.105Z,102753.75
2022-12-18T05:10:48.262Z,102757.28
2022-12-18T05:13:15.447Z,102766.84
2022-12-18T05:15:42.895Z,102761.63
2022-12-18T05:18:10.187Z,102764.19
2022-12-18T05:20:37.523Z,102774.72
2022-12-18T05:23:04.642Z,102773.84
2022-12-18T05:25:31.770Z,102783.47
2022-12-18T05:27:58.910Z,102772.97
2022-12-18T05:30:26.925Z,102782.59
2022-12-18T05:32:54.628Z,102775.63
2022-12-18T05:35:22.581Z,102779.97
2022-12-18T05:37:49.733Z,102795.69
2022-12-18T05:40:16.920Z,102793.13
2022-12-18T05:42:44.013Z,102794.00
2022-12-18T05:45:11.283Z,102795.78
2022-12-18T05:47:38.379Z,102798.34
2022-12-18T05:50:06.122Z,102808.88
2022-12-18T05:52:33.217Z,102798.38
2022-12-18T05:55:00.365Z,102810.63
2022-12-18T05:57:27.550Z,102815.03
2022-12-18T05:59:54.683Z,102819.38
2022-12-18T06:02:22.116Z,102824.66
2022-12-18T06:04:49.337Z,102830.75
2022-12-18T06:07:16.465Z,102832.50
2022-12-18T06:09:43.567Z,102822.03
2022-12-18T06:12:11.600Z,102830.75
2022-12-18T06:14:38.891Z,102829.00
2022-12-18T06:17:06.011Z,102833.41
2022-12-18T06:19:33.162Z,102828.19
2022-12-18T06:22:00.739Z,102836.06
2022-12-18T06:24:27.857Z,102837.78
2022-12-18T06:26:54.979Z,102843.94
2022-12-18T06:29:22.104Z,102849.19
2022-12-18T06:31:49.287Z,102864.06
2022-12-18T06:34:16.420Z,102866.69
2022-12-18T06:36:43.528Z,102864.91
2022-12-18T06:39:10.684Z,102867.56
2022-12-18T06:41:37.847Z,102877.16
2022-12-18T06:44:05.031Z,102875.41
2022-12-18T06:46:33.158Z,102889.44
2022-12-18T06:49:00.227Z,102883.28
2022-12-18T06:51:27.548Z,102885.06
2022-12-18T06:53:54.670Z,102891.16
2022-12-18T06:56:21.929Z,102901.66
2022-12-18T06:58:51.882Z,102895.56
2022-12-18T07:01:19.207Z,102898.19
2022-12-18T07:03:46.510Z,102910.41
2022-12-18T07:06:18.815Z,102913.03
2022-12-18T07:08:47.041Z,102927.03
2022-12-18T07:11:14.614Z,102933.97
2022-12-18T07:13:42.235Z,102935.72
2022-12-18T07:16:20.789Z,102920.84
2022-12-18T07:18:51.277Z,102931.34
2022-12-18T07:21:20.365Z,102924.34
2022-12-18T07:23:49.086Z,102940.97
2022-12-18T07:26:19.131Z,102947.06
2022-12-18T07:28:47.010Z,102933.94
2022-12-18T07:31:18.422Z,102924.34
2022-12-18T07:33:46.816Z,102936.59
2022-12-18T07:36:14.716Z,102947.09
2022-12-18T07:38:42.426Z,102950.59
2022-12-18T07:41:12.522Z,102952.34
2022-12-18T07:43:41.788Z,102954.09
2022-12-18T07:46:10.720Z,102954.09
2022-12-18T07:48:45.384Z,102947.97
2022-12-18T07:51:17.541Z,102950.56
2022-12-18T07:53:45.849Z,102952.28
2022-12-18T07:56:31.265Z,102960.16
2022-12-18T07:59:00.193Z,102960.19
2022-12-18T08:01:27.808Z,102961.03
2022-12-18T08:03:55.139Z,102968.94
2022-12-18T08:06:24.009Z,102969.75
2022-12-18T08:08:56.369Z,102976.78
2022-12-18T08:11:25.766Z,102982.00
2022-12-18T08:13:53.014Z,102983.72
2022-12-18T08:16:22.176Z,102984.53
2022-12-18T08:18:49.456Z,102989.72
2022-12-18T08:21:20.415Z,102984.38
2022-12-18T08:23:49.052Z,102993.94
2022-12-18T08:26:17.298Z,103001.75
2022-12-18T08:28:45.078Z,103003.47
2022-12-18T08:31:12.232Z,103007.78
2022-12-18T08:33:40.598Z,103015.56
2022-12-18T08:36:10.372Z,103021.66
2022-12-18T08:38:37.573Z,103019.94
2022-12-18T08:41:07.664Z,103038.25
2022-12-18T08:43:53.643Z,103033.91
2022-12-18T08:46:22.802Z,103027.81
2022-12-18T08:48:51.885Z,103039.13
2022-12-18T08:51:20.161Z,103043.47
2022-12-18T08:53:48.211Z,103051.09
2022-12-18T08:56:17.664Z,103057.97
2022-12-18T08:58:45.072Z,103063.34
2022-12-18T09:01:13.622Z,103062.56
2022-12-18T09:03:41.447Z,103067.19
2022-12-18T09:06:09.464Z,103071.69
2022-12-18T09:08:37.876Z,103072.59
2022-12-18T09:11:05.396Z,103068.16
2022-12-18T09:13:32.500Z,103068.94
2022-12-18T09:15:59.611Z,103072.44
2022-12-18T09:18:26.687Z,103069.69
2022-12-18T09:20:54.061Z,103077.53
2022-12-18T09:23:23.443Z,103079.25
2022-12-18T09:25:50.526Z,103083.63
2022-12-18T09:28:20.089Z,103086.25
2022-12-18T09:30:49.894Z,103080.94
2022-12-18T09:33:17.975Z,103073.78
2022-12-18T09:35:46.465Z,103087.94
2022-12-18T09:38:16.798Z,103087.06
2022-12-18T09:40:49.634Z,103083.41
2022-12-18T09:43:51.130Z,103079.03
2022-12-18T09:46:26.320Z,103076.19
2022-12-18T09:48:57.488Z,103070.94
2022-12-18T09:51:31.629Z,103072.59
2022-12-18T09:54:06.427Z,103071.63
2022-12-18T09:56:37.779Z,103068.03
2022-12-18T09:59:05.809Z,103067.28
2022-12-18T10:01:41.744Z,103061.16
2022-12-18T10:04:11.558Z,103059.25
2022-12-18T10:06:47.841Z,103062.69
2022-12-18T10:09:27.119Z,103052.16
2022-12-18T10:12:22.204Z,103050.63
2022-12-18T10:14:49.287Z,103048.88
2022-12-18T10:17:25.458Z,103054.78
2022-12-18T10:20:00.059Z,103053.81
2022-12-18T10:22:51.161Z,103050.06
2022-12-18T10:25:29.783Z,103037.81
2022-12-18T10:28:11.025Z,103044.69
2022-12-18T10:30:40.013Z,103049.84
2022-12-18T10:33:11.582Z,103049.59
2022-12-18T10:35:42.748Z,103049.69
2022-12-18T10:38:12.658Z,103038.31
2022-12-18T10:40:49.823Z,103029.78
2022-12-18T10:43:22.325Z,103031.22
2022-12-18T10:46:08.016Z,103029.41
2022-12-18T10:48:48.392Z,103028.59
2022-12-18T10:51:24.299Z,103030.19
2022-12-18T10:54:06.380Z,103020.41
2022-12-18T10:56:37.522Z,103032.50
2022-12-18T10:59:07.854Z,103035.84
2022-12-18T11:01:55.934Z,103031.22
2022-12-18T11:04:26.156Z,103033.88
2022-12-18T11:07:01.811Z,103032.13
2022-12-18T11:09:32.740Z,103034.78
2022-12-18T11:12:02.758Z,103034.44
2022-12-18T11:14:47.150Z,103029.22
2022-12-18T11:17:29.092Z,103028.25
2022-12-18T11:19:59.306Z,103033.63
2022-12-18T11:22:28.641Z,103034.47
2022-12-18T11:25:32.168Z,103031.09
2022-12-18T11:28:00.032Z,103040.66
2022-12-18T11:30:33.156Z,103046.63
2022-12-18T11:33:17.256Z,103046.84
2022-12-18T11:35:44.236Z,103042.16
2022-12-18T11:38:20.207Z,103037.41
2022-12-18T11:41:10.579Z,103043.78
2022-12-18T11:43:53.855Z,103031.84
2022-12-18T11:46:42.138Z,103022.53
2022-12-18T11:49:27.586Z,103029.75
2022-12-18T11:52:01.728Z,103029.72
2022-12-18T11:54:28.876Z,103026.09
2022-12-18T11:57:27.665Z,103020.66
2022-12-18T12:00:04.761Z,103014.38
2022-12-18T12:02:58.201Z,103006.47
2022-12-18T12:05:50.940Z,103018.03
2022-12-18T12:08:45.337Z,103004.19
2022-12-18T12:11:44.028Z,103001.81
2022-12-18T12:14:26.057Z,102994.72
2022-12-18T12:17:02.407Z,102997.97
2022-12-18T12:19:38.419Z,102991.09
2022-12-18T12:22:28.912Z,102992.97
2022-12-18T12:24:58.717Z,102997.25
2022-12-18T12:27:34.780Z,102996.31
2022-12-18T12:30:05.639Z,103002.84
2022-12-18T12:32:53.664Z,103004.53
2022-12-18T12:35:33.200Z,103010.38
2022-12-18T12:38:12.446Z,102993.94
2022-12-18T12:41:02.824Z,102999.66
2022-12-18T12:43:49.557Z,103001.19
2022-12-18T12:46:22.245Z,102995.81
2022-12-18T12:48:57.540Z,103004.47
2022-12-18T12:51:29.617Z,103003.38
2022-12-18T12:53:59.068Z,103015.69
2022-12-18T12:56:37.521Z,103015.97
2022-12-18T12:59:13.771Z,103009.88
2022-12-18T13:02:03.251Z,103006.00
2022-12-18T13:05:24.442Z,103006.84
2022-12-18T13:08:04.614Z,103003.47
2022-12-18T13:10:37.261Z,103005.56
2022-12-18T13:13:17.189Z,103001.00
2022-12-18T13:16:09.065Z,103002.72
2022-12-18T13:18:36.576Z,102999.44
2022-12-18T13:21:31.512Z,102997.91
2022-12-18T13:24:23.588Z,103004.91
2022-12-18T13:26:50.715Z,103002.25
2022-12-18T13:29:45.760Z,103002.47
2022-12-18T13:32:22.813Z,103008.84
2022-12-18T13:35:23.038Z,103004.50
2022-12-18T13:37:56.285Z,103004.53
2022-12-18T13:40:48.476Z,103004.03
2022-12-18T13:43:18.548Z,102999.84
2022-12-18T13:46:18.850Z,102997.03
2022-12-18T13:49:02.748Z,102999.47
2022-12-18T13:51:32.069Z,102994.22
2022-12-18T13:54:19.640Z,102990.94
2022-12-18T13:56:49.085Z,102993.84
2022-12-18T13:59:23.269Z,102991.28
2022-12-18T14:01:56.424Z,102994.88
2022-12-18T14:04:28.351Z,102986.88
2022-12-18T14:07:02.243Z,102999.34
2022-12-18T14:09:32.541Z,103002.88
2022-12-18T14:12:19.683Z,102998.59
2022-12-18T14:14:49.878Z,102997.88
2022-12-18T14:17:20.773Z,103003.16
2022-12-18T14:19:52.058Z,103006.56
2022-12-18T14:22:22.076Z,103009.19
2022-12-18T14:25:14.193Z,103009.31
2022-12-18T14:27:51.182Z,103012.25
2022-12-18T14:30:31.331Z,103013.09
2022-12-18T14:33:03.292Z,103013.25
2022-12-18T14:35:30.925Z,103019.41
2022-12-18T14:38:16.706Z,103018.81
2022-12-18T14:40:44.968Z,103017.13
2022-12-18T14:43:12.494Z,103013.75
2022-12-18T14:45:45.280Z,103012.13
2022-12-18T14:48:12.453Z,103013.13
2022-12-18T14:50:41.000Z,103015.81
2022-12-18T14:53:21.109Z,103015.97
2022-12-18T14:55:49.665Z,103010.78
2022-12-18T14:58:18.688Z,103022.31
2022-12-18T15:00:45.796Z,103023.31
2022-12-18T15:03:19.595Z,103025.13
2022-12-18T15:05:47.161Z,103030.41
2022-12-18T15:08:46.866Z,103023.50
2022-12-18T15:11:35.692Z,103021.03
2022-12-18T15:14:38.497Z,103021.09
2022-12-18T15:17:15.904Z,103024.69
2022-12-18T15:19:45.336Z,103026.56
2022-12-18T15:22:19.947Z,103032.75
2022-12-18T15:24:47.654Z,103039.84
2022-12-18T15:27:47.412Z,103036.44
2022-12-18T15:30:20.431Z,103024.28
2022-12-18T15:32:48.068Z,103040.09
2022-12-18T15:35:15.107Z,103041.03
2022-12-18T15:37:43.393Z,103046.38
2022-12-18T15:40:22.305Z,103049.03
2022-12-18T15:43:10.385Z,103047.34
2022-12-18T15:45:37.529Z,103051.78
2022-12-18T15:48:31.180Z,103058.84
2022-12-18T15:50:59.415Z,103060.63
2022-12-18T15:53:31.267Z,103066.81
2022-12-18T15:56:17.229Z,103058.94
2022-12-18T15:58:44.308Z,103068.63
2022-12-18T16:01:12.601Z,103065.16
2022-12-18T16:03:40.215Z,103064.28
2022-12-18T16:06:07.819Z,103069.56
2022-12-18T16:08:34.989Z,103074.84
2022-12-18T16:11:02.616Z,103071.34
2022-12-18T16:13:29.797Z,103067.84
2022-12-18T16:15:57.041Z,103076.63
2022-12-18T16:18:24.173Z,103073.09
2022-12-18T16:20:51.389Z,103079.22
2022-12-18T16:23:18.486Z,103079.22
2022-12-18T16:25:45.613Z,103087.97
2022-12-18T16:28:12.708Z,103082.72
2022-12-18T16:30:41.231Z,103087.09
2022-12-18T16:33:10.646Z,103083.59
2022-12-18T16:35:38.147Z,103087.94
2022-12-18T16:38:05.407Z,103080.94
2022-12-18T16:40:33.675Z,103087.91
2022-12-18T16:43:00.790Z,103087.91
2022-12-18T16:45:33.927Z,103079.13
2022-12-18T16:48:01.086Z,103087.00
2022-12-18T16:50:28.218Z,103088.72
2022-12-18T16:52:55.329Z,103085.22
2022-12-18T16:55:22.437Z,103093.94
2022-12-18T16:57:49.513Z,103099.13
2022-12-18T17:00:18.178Z,103101.72
2022-12-18T17:02:45.408Z,103101.69
2022-12-18T17:05:12.790Z,103095.56
2022-12-18T17:07:39.927Z,103097.31
2022-12-18T17:10:07.255Z,103101.69
2022-12-18T17:12:34.349Z,103102.59
2022-12-18T17:15:01.434Z,103101.69
2022-12-18T17:17:28.572Z,103108.69
2022-12-18T17:19:56.102Z,103106.91
2022-12-18T17:22:23.345Z,103109.50
2022-12-18T17:24:50.656Z,103116.50
2022-12-18T17:27:17.781Z,103116.50
2022-12-18T17:29:48.050Z,103108.59
2022-12-18T17:32:16.965Z,103122.59
2022-12-18T17:34:44.494Z,103123.41
2022-12-18T17:37:11.739Z,103126.06
2022-12-18T17:39:39.732Z,103119.06
2022-12-18T17:42:06.904Z,103112.09
2022-12-18T17:44:36.725Z,103118.25
2022-12-18T17:47:04.101Z,103114.72
2022-12-18T17:49:31.533Z,103133.06
2022-12-18T17:51:58.648Z,103130.44
2022-12-18T17:54:25.755Z,103141.75
2022-12-18T17:56:52.839Z,103138.22
2022-12-18T17:59:19.966Z,103130.31
2022-12-18T18:01:47.266Z,103139.88
2022-12-18T18:04:15.091Z,103139.84
2022-12-18T18:06:42.374Z,103140.75
2022-12-18T18:09:16.283Z,103148.59
2022-12-18T18:12:03.386Z,103143.31
2022-12-18T18:14:30.863Z,103150.25
2022-12-18T18:16:58.754Z,103144.97
2022-12-18T18:19:31.246Z,103151.06
2022-12-18T18:21:58.435Z,103143.16
2022-12-18T18:24:26.087Z,103137.00
2022-12-18T18:26:56.497Z,103151.84
2022-12-18T18:29:26.645Z,103147.44
2022-12-18T18:31:54.443Z,103147.41
2022-12-18T18:34:24.404Z,103154.38
2022-12-18T18:36:52.115Z,103149.97
2022-12-18T18:39:19.691Z,103150.78
2022-12-18T18:41:48.555Z,103155.13
2022-12-18T18:44:17.311Z,103154.22
2022-12-18T18:46:45.065Z,103162.78
2022-12-18T18:49:13.858Z,103164.53
2022-12-18T18:51:42.119Z,103154.81
2022-12-18T18:54:09.885Z,103159.94
2022-12-18T18:57:11.341Z,103159.94
2022-12-18T18:59:29.152Z,103163.31
2022-12-18T19:02:00.658Z,103159.81
2022-12-18T19:04:33.352Z,103164.16
2022-12-18T19:07:00.931Z,103158.03
2022-12-18T19:09:28.571Z,103152.84
2022-12-18T19:12:15.007Z,103153.72
2022-12-18T19:14:42.990Z,103154.63
2022-12-18T19:17:10.712Z,103145.88
2022-12-18T19:19:38.524Z,103143.25
2022-12-18T19:22:05.996Z,103146.78
2022-12-18T19:24:33.166Z,103149.41
2022-12-18T19:27:00.283Z,103146.63
2022-12-18T19:29:27.606Z,103140.47
2022-12-18T19:31:54.785Z,103144.88
2022-12-18T19:34:21.977Z,103150.91
2022-12-18T19:36:49.099Z,103148.25
2022-12-18T19:39:18.213Z,103156.91
2022-12-18T19:41:47.539Z,103163.75
2022-12-18T19:44:17.358Z,103160.22
2022-12-18T19:46:46.170Z,103159.41
2022-12-18T19:49:18.180Z,103155.81
2022-12-18T19:51:45.663Z,103162.78
2022-12-18T19:54:17.188Z,103171.47
2022-12-18T19:56:45.836Z,103158.41
2022-12-18T19:59:13.808Z,103170.56
2022-12-18T20:01:41.446Z,103174.03
2022-12-18T20:04:09.153Z,103177.47
2022-12-18T20:06:46.427Z,103174.84
2022-12-18T20:09:13.748Z,103171.31
2022-12-18T20:11:41.939Z,103169.50
2022-12-18T20:14:14.685Z,103184.38
2022-12-18T20:16:49.482Z,103180.88
2022-12-18T20:19:18.576Z,103182.59
2022-12-18T20:21:46.081Z,103189.53
2022-12-18T20:24:13.296Z,103189.53
2022-12-18T20:26:40.610Z,103184.34
2022-12-18T20:29:07.800Z,103176.38
2022-12-18T20:31:34.966Z,103181.63
2022-12-18T20:34:03.640Z,103187.69
2022-12-18T20:36:34.103Z,103182.34
2022-12-18T20:39:06.417Z,103182.34
2022-12-18T20:41:37.885Z,103191.03
2022-12-18T20:44:12.785Z,103189.28
2022-12-18T20:46:57.909Z,103187.53
2022-12-18T20:49:26.655Z,103194.41
2022-12-18T20:51:56.235Z,103200.44
2022-12-18T20:54:26.039Z,103205.81
2022-12-18T20:56:53.345Z,103208.47
2022-12-18T20:59:21.023Z,103212.75
2022-12-18T21:01:49.520Z,103206.06
2022-12-18T21:04:19.173Z,103211.50
2022-12-18T21:06:53.050Z,103218.72
2022-12-18T21:09:23.679Z,103213.63
2022-12-18T21:12:14.182Z,103209.47
2022-12-18T21:14:42.764Z,103221.78
2022-12-18T21:17:10.581Z,103216.63
2022-12-18T21:19:37.972Z,103229.84
2022-12-18T21:22:05.577Z,103227.25
2022-12-18T21:24:33.180Z,103222.09
2022-12-18T21:27:00.492Z,103225.69
2022-12-18T21:29:27.979Z,103223.00
2022-12-18T21:31:55.222Z,103223.00
2022-12-18T21:34:27.646Z,103223.94
2022-12-18T21:36:57.233Z,103217.72
2022-12-18T21:39:25.448Z,103222.00
2022-12-18T21:42:11.372Z,103211.56
2022-12-18T21:44:41.466Z,103214.06
2022-12-18T21:47:21.537Z,103221.81
2022-12-18T21:49:50.718Z,103227.09
2022-12-18T21:52:18.119Z,103227.16
2022-12-18T21:54:45.260Z,103225.28
2022-12-18T21:57:13.426Z,103229.34
2022-12-18T21:59:43.279Z,103232.72
2022-12-18T22:02:19.869Z,103236.03
2022-12-18T22:04:47.596Z,103238.69
2022-12-18T22:07:16.379Z,103234.16
2022-12-18T22:09:43.564Z,103240.16
2022-12-18T22:12:13.502Z,103237.44
2022-12-18T22:14:40.632Z,103239.19
2022-12-18T22:17:07.716Z,103238.34
2022-12-18T22:19:41.100Z,103233.34
2022-12-18T22:22:10.125Z,103238.34
2022-12-18T22:24:37.266Z,103240.16
2022-12-18T22:27:04.351Z,103244.41
2022-12-18T22:29:50.007Z,103239.19
2022-12-18T22:32:17.841Z,103240.13
2022-12-18T22:34:59.423Z,103247.22
2022-12-18T22:37:30.552Z,103243.72
2022-12-18T22:39:57.674Z,103239.50
2022-12-18T22:42:25.236Z,103241.19
2022-12-18T22:44:52.324Z,103234.19
2022-12-18T22:47:19.425Z,103229.94
2022-12-18T22:49:46.721Z,103233.47
2022-12-18T22:52:13.865Z,103244.75
2022-12-18T22:54:43.472Z,103245.75
2022-12-18T22:57:10.620Z,103250.03
2022-12-18T22:59:37.742Z,103252.78
2022-12-18T23:02:05.326Z,103251.09
2022-12-18T23:04:36.417Z,103253.78
2022-12-18T23:07:05.175Z,103252.06
2022-12-18T23:09:32.726Z,103246.88
2022-12-18T23:12:00.253Z,103246.06
2022-12-18T23:14:28.491Z,103251.28
2022-12-18T23:16:56.372Z,103247.81
2022-12-18T23:19:24.627Z,103252.28
2022-12-18T23:21:51.808Z,103252.28
2022-12-18T23:24:21.630Z,103232.38
2022-12-18T23:26:48.714Z,103229.84
2022-12-18T23:29:15.798Z,103229.00
2022-12-18T23:31:42.948Z,103228.16
2022-12-18T23:34:13.184Z,103227.28
2022-12-18T23:36:45.502Z,103229.91
2022-12-18T23:39:15.321Z,103218.63
2022-12-18T23:41:55.987Z,103203.72
2022-12-18T23:44:23.202Z,103202.16
2022-12-18T23:46:50.378Z,103202.16
2022-12-18T23:49:17.578Z,103196.94
2022-12-18T23:51:44.669Z,103194.31
2022-12-18T23:54:11.770Z,103199.59
2022-12-18T23:56:38.965Z,103208.31
2022-12-18T23:59:06.075Z,103209.22
